Time;durP1;ratioP1;P1;durP2;ratioP2;P2;SDS_P1;SDS_P2;PMS_P1;PMS_P2;Temp;Humidity;BMP_temperature;BMP_pressure;BME280_temperature;BME280_humidity;BME280_pressure;Samples;Min_cycle;Max_cycle;Signal;HPM_P1;HPM_P2
2022/07/03 00:02:24;;;;;;;44.85;29.00;;;;;;;-143.10;100.00;51118.34;4970108;28;20150;-75
2022/07/03 00:05:06;;;;;;;44.15;31.85;;;;;;;-143.10;100.00;51128.16;4975975;28;20061;-76
2022/07/03 00:07:55;;;;;;;44.83;30.40;;;;;;;-143.10;100.00;51087.03;4984524;28;20053;-75
2022/07/03 00:10:36;;;;;;;49.72;33.10;;;;;;;-143.10;100.00;51077.25;4995187;28;20113;-74
2022/07/03 00:13:26;;;;;;;48.90;32.35;;;;;;;-143.10;100.00;51104.66;4958562;28;20619;-75
2022/07/03 00:16:08;;;;;;;44.70;28.52;;;;;;;-143.10;100.00;51094.88;4980801;28;20042;-73
2022/07/03 00:18:57;;;;;;;40.72;27.95;;;;;;;-143.10;100.00;51137.94;4985783;28;20054;-76
2022/07/03 00:21:59;;;;;;;38.15;26.75;;;;;;;-143.10;100.00;51094.88;5006457;28;20105;-73
2022/07/03 00:24:51;;;;;;;35.58;25.80;;;;;;;-143.10;100.00;51135.97;4960924;28;20809;-78
2022/07/03 00:27:35;;;;;;;33.17;24.70;;;;;;;-143.10;100.00;51122.28;4960598;28;20148;-76
2022/07/03 00:30:26;;;;;;;28.85;22.90;;;;;;;-143.10;100.00;51085.06;4959989;28;20627;-76
2022/07/03 00:33:11;;;;;;;32.80;21.67;;;;;;;-143.10;100.00;51092.91;4978668;28;20157;-77
2022/07/03 00:36:07;;;;;;;26.45;21.00;;;;;;;-143.10;100.00;51090.94;4961480;28;20055;-76
2022/07/03 00:38:44;;;;;;;32.28;22.70;;;;;;;-143.10;100.00;51122.28;4977332;28;20664;-77
2022/07/03 00:41:42;;;;;;;30.77;21.77;;;;;;;-143.10;100.00;51120.31;4961792;28;20054;-77
2022/07/03 00:44:19;;;;;;;27.25;21.50;;;;;;;-143.10;100.00;51098.78;4976761;28;20051;-77
2022/07/03 00:47:10;;;;;;;28.30;21.15;;;;;;;-143.10;100.00;51139.91;4964937;28;20038;-74
2022/07/03 00:50:03;;;;;;;29.88;22.77;;;;;;;-143.10;100.00;51124.22;4980514;28;20553;-77
2022/07/03 00:52:49;;;;;;;28.33;22.02;;;;;;;-143.10;100.00;51108.56;4981404;28;20055;-76
2022/07/03 00:55:42;;;;;;;31.13;21.77;;;;;;;-143.10;100.00;51092.91;4980933;28;20128;-76
2022/07/03 00:58:24;;;;;;;26.77;20.75;;;;;;;-143.10;100.00;51132.06;4963907;28;20046;-76
2022/07/03 01:01:15;;;;;;;33.28;22.65;;;;;;;-143.10;100.00;51139.91;4965690;28;20055;-74
2022/07/03 01:04:33;;;;;;;31.00;24.33;;;;;;;-143.10;100.00;51096.81;4980199;28;20496;-75
2022/07/03 01:07:18;;;;;;;28.38;22.90;;;;;;;-143.10;100.00;51122.28;4980551;28;20747;-77
2022/07/03 01:10:24;;;;;;;30.65;23.00;;;;;;;-143.10;100.00;51102.69;4980426;28;20061;-76
2022/07/03 01:13:34;;;;;;;29.95;23.17;;;;;;;-143.10;100.00;51145.78;4980897;28;20066;-77
2022/07/03 01:16:50;;;;;;;30.88;22.60;;;;;;;-143.10;100.00;51092.91;4980327;28;20066;-77
2022/07/03 01:19:47;;;;;;;34.40;24.23;;;;;;;-143.10;100.00;51112.50;4980595;28;20062;-76
2022/07/03 01:22:43;;;;;;;32.70;24.23;;;;;;;-143.10;100.00;51135.97;4987538;28;20107;-76
2022/07/03 01:25:35;;;;;;;38.78;28.15;;;;;;;-143.10;100.00;51128.16;5008496;28;20104;-76
2022/07/03 01:28:23;;;;;;;43.55;28.92;;;;;;;-143.10;100.00;51083.13;5006288;28;20543;-78
2022/07/03 01:31:16;;;;;;;36.97;26.67;;;;;;;-143.10;100.00;51104.66;5008324;28;20077;-77
2022/07/03 01:33:59;;;;;;;41.55;28.98;;;;;;;-143.10;100.00;51108.56;4985518;28;20053;-77
2022/07/03 01:36:50;;;;;;;44.63;28.42;;;;;;;-143.10;100.00;51104.66;5006534;28;20050;-77
2022/07/03 01:39:34;;;;;;;44.20;32.53;;;;;;;-143.10;100.00;51116.41;5006175;28;20045;-77
2022/07/03 01:42:40;;;;;;;40.88;28.58;;;;;;;-143.10;100.00;51114.44;5006740;28;20128;-77
2022/07/03 01:45:27;;;;;;;45.35;30.15;;;;;;;-143.10;100.00;51124.22;5008100;28;20543;-76
2022/07/03 01:48:18;;;;;;;45.80;31.10;;;;;;;-143.10;100.00;51120.31;5007646;28;20664;-77
2022/07/03 01:51:00;;;;;;;46.65;33.38;;;;;;;-143.10;100.00;51116.41;5008732;28;20049;-77
2022/07/03 01:53:58;;;;;;;46.33;32.80;;;;;;;-143.10;100.00;51106.63;5003702;28;20144;-75
2022/07/03 01:56:40;;;;;;;46.20;31.98;;;;;;;-143.10;100.00;51124.22;4986334;28;20066;-77
2022/07/03 01:59:29;;;;;;;43.33;32.05;;;;;;;-143.10;100.00;51120.31;4979777;28;20125;-77
2022/07/03 02:02:31;;;;;;;46.05;30.33;;;;;;;-143.10;100.00;51132.06;4986115;28;20042;-76
2022/07/03 02:05:39;;;;;;;40.65;30.85;;;;;;;-143.10;100.00;51118.34;4999131;28;20077;-77
2022/07/03 02:08:34;;;;;;;42.15;29.83;;;;;;;-143.10;100.00;51114.44;4995131;28;20235;-76
2022/07/03 02:11:34;;;;;;;44.83;31.30;;;;;;;-143.10;100.00;51120.31;5008862;28;20054;-77
2022/07/03 02:14:36;;;;;;;39.63;30.15;;;;;;;-143.10;100.00;51124.22;5015766;28;20134;-76
2022/07/03 02:17:28;;;;;;;46.97;29.65;;;;;;;-143.10;100.00;51132.06;4993006;28;20551;-76
2022/07/03 02:20:11;;;;;;;40.03;29.30;;;;;;;-143.10;100.00;51143.81;4996882;28;20054;-76
2022/07/03 02:23:10;;;;;;;40.25;26.85;;;;;;;-143.10;100.00;51135.97;5014497;28;20049;-76
2022/07/03 02:26:04;;;;;;;32.22;24.65;;;;;;;-143.10;100.00;51132.06;4985325;28;20213;-77
2022/07/03 02:29:23;;;;;;;32.50;23.63;;;;;;;-143.10;100.00;51124.22;5005367;28;20073;-75
2022/07/03 02:32:16;;;;;;;28.13;22.42;;;;;;;-143.10;100.00;51134.03;4980967;28;20053;-76
2022/07/03 02:35:19;;;;;;;29.75;22.50;;;;;;;-143.10;100.00;51120.31;4989552;28;20042;-76
2022/07/03 02:38:19;;;;;;;33.70;22.95;;;;;;;-143.10;100.00;51124.22;4990885;28;20436;-75
2022/07/03 02:41:19;;;;;;;26.65;20.50;;;;;;;-143.10;100.00;51120.31;4989970;28;20061;-73
2022/07/03 02:44:27;;;;;;;24.58;20.05;;;;;;;-143.10;100.00;51092.91;5004092;28;20049;-75
2022/07/03 02:47:40;;;;;;;25.83;19.85;;;;;;;-143.10;100.00;51073.34;4971225;28;20780;-76
2022/07/03 02:50:31;;;;;;;28.77;21.58;;;;;;;-143.10;100.00;51090.94;5005833;28;20069;-76
2022/07/03 02:54:01;;;;;;;24.85;19.75;;;;;;;-143.10;100.00;51092.91;4988835;28;20045;-77
2022/07/03 02:57:08;;;;;;;27.42;21.15;;;;;;;-143.10;100.00;51087.03;4992372;28;20545;-76
2022/07/03 03:00:04;;;;;;;30.00;21.65;;;;;;;-143.10;100.00;51112.50;4987983;28;20053;-75
2022/07/03 03:02:55;;;;;;;26.15;20.88;;;;;;;-143.10;100.00;51102.69;5021852;28;20041;-75
2022/07/03 03:05:56;;;;;;;27.38;20.08;;;;;;;-143.10;100.00;51108.56;5018031;28;20061;-77
2022/07/03 03:09:02;;;;;;;33.53;20.65;;;;;;;-143.10;100.00;51098.78;5021443;28;20056;-76
2022/07/03 03:11:52;;;;;;;30.73;20.37;;;;;;;-143.10;100.00;51087.03;5005941;28;20135;-75
2022/07/03 03:14:41;;;;;;;23.67;19.15;;;;;;;-143.10;100.00;51077.25;5013248;28;20131;-75
2022/07/03 03:17:33;;;;;;;30.70;19.45;;;;;;;-143.10;100.00;51059.63;5006074;28;20042;-75
2022/07/03 03:20:27;;;;;;;28.08;18.83;;;;;;;-143.10;100.00;51098.78;4997703;28;20108;-75
2022/07/03 03:23:44;;;;;;;30.20;18.88;;;;;;;-143.10;100.00;51092.91;5008182;28;20048;-76
2022/07/03 03:26:33;;;;;;;22.83;18.30;;;;;;;-143.10;100.00;51089.00;5004385;28;20111;-75
2022/07/03 03:29:15;;;;;;;24.05;17.83;;;;;;;-143.10;100.00;51108.56;4991042;28;20050;-75
2022/07/03 03:32:04;;;;;;;22.17;16.73;;;;;;;-143.10;100.00;51077.25;5007389;28;20060;-76
2022/07/03 03:34:48;;;;;;;28.48;18.70;;;;;;;-143.10;100.00;51090.94;5007101;28;20053;-76
2022/07/03 03:37:37;;;;;;;22.42;16.77;;;;;;;-143.10;100.00;51130.09;4991621;28;20108;-75
2022/07/03 03:40:20;;;;;;;22.75;16.80;;;;;;;-143.10;100.00;51139.91;5006266;28;20041;-76
2022/07/03 03:43:15;;;;;;;29.27;20.08;;;;;;;-143.10;100.00;51128.16;5006099;28;20119;-76
2022/07/03 03:45:50;;;;;;;24.60;17.42;;;;;;;-143.10;100.00;51092.91;5007092;28;20046;-76
2022/07/03 03:48:39;;;;;;;25.60;18.52;;;;;;;-143.10;100.00;51096.81;5006808;28;20074;-76
2022/07/03 03:51:21;;;;;;;26.77;17.35;;;;;;;-143.10;100.00;51085.06;5006170;28;20070;-75
2022/07/03 03:54:10;;;;;;;24.40;16.83;;;;;;;-143.10;100.00;51065.50;4989144;28;20417;-75
2022/07/03 03:56:52;;;;;;;27.63;18.02;;;;;;;-143.10;100.00;51092.91;5006951;28;20056;-75
2022/07/03 03:59:41;;;;;;;24.60;16.80;;;;;;;-143.10;100.00;51116.41;5006751;28;20042;-75
2022/07/03 04:02:23;;;;;;;25.65;18.10;;;;;;;-143.10;100.00;51090.94;5006443;28;20045;-74
2022/07/03 04:05:13;;;;;;;24.42;18.58;;;;;;;-143.10;100.00;51092.91;4972824;28;20793;-75
2022/07/03 04:07:57;;;;;;;25.48;19.30;;;;;;;-143.10;100.00;51057.66;4990884;28;20132;-74
2022/07/03 04:10:46;;;;;;;29.02;18.98;;;;;;;-143.10;100.00;51104.66;5006240;28;20454;-76
2022/07/03 04:13:42;;;;;;;26.42;19.73;;;;;;;-143.10;100.00;51079.19;4991609;28;20058;-75
2022/07/03 04:16:17;;;;;;;25.63;19.05;;;;;;;-143.10;100.00;51137.94;5001649;28;20081;-74
2022/07/03 04:19:06;;;;;;;29.92;19.27;;;;;;;-143.10;100.00;51098.78;5025824;28;20049;-75
2022/07/03 04:21:48;;;;;;;29.92;20.83;;;;;;;-143.10;100.00;51106.63;4986172;28;20050;-74
2022/07/03 04:24:45;;;;;;;29.75;20.80;;;;;;;-143.10;100.00;51100.75;4987663;28;20042;-75
2022/07/03 04:27:20;;;;;;;30.08;21.63;;;;;;;-143.10;100.00;51096.81;4973804;28;20478;-75
2022/07/03 04:30:29;;;;;;;31.95;22.60;;;;;;;-143.10;100.00;51100.75;4987166;28;20193;-75
2022/07/03 04:33:18;;;;;;;32.03;23.38;;;;;;;-143.10;100.00;51112.50;4968838;28;20112;-74
2022/07/03 04:36:00;;;;;;;32.60;24.20;;;;;;;-143.10;100.00;51112.50;4969630;28;20054;-74
2022/07/03 04:38:49;;;;;;;40.30;26.27;;;;;;;-143.10;100.00;51083.13;4986628;28;20073;-75
2022/07/03 04:41:30;;;;;;;36.17;26.55;;;;;;;-143.10;100.00;51134.03;4985975;28;20425;-75
2022/07/03 04:44:20;;;;;;;36.58;27.65;;;;;;;-143.10;100.00;51104.66;4969377;28;20050;-73
2022/07/03 04:47:02;;;;;;;36.13;26.60;;;;;;;-143.10;100.00;51116.41;4978191;28;20051;-76
2022/07/03 04:49:51;;;;;;;36.22;27.27;;;;;;;-143.10;100.00;51079.19;4994688;28;20049;-75
2022/07/03 04:52:33;;;;;;;44.10;28.45;;;;;;;-143.10;100.00;51114.44;5005951;28;20069;-74
2022/07/03 04:55:22;;;;;;;45.42;28.52;;;;;;;-143.10;100.00;51120.31;4990944;28;20061;-74
2022/07/03 04:58:03;;;;;;;39.10;27.55;;;;;;;-143.10;100.00;51108.56;5006002;28;20054;-76
2022/07/03 05:00:53;;;;;;;38.33;28.25;;;;;;;-143.10;100.00;51089.00;5005975;28;20050;-74
2022/07/03 05:03:34;;;;;;;39.65;29.83;;;;;;;-143.10;100.00;51110.53;4986036;28;20062;-74
2022/07/03 05:06:24;;;;;;;36.15;25.63;;;;;;;-143.10;100.00;51085.06;4968856;28;20537;-74
2022/07/03 05:09:10;;;;;;;35.17;26.77;;;;;;;-143.10;100.00;51102.69;4986532;28;20422;-75
2022/07/03 05:12:03;;;;;;;36.67;25.65;;;;;;;-143.10;100.00;51061.59;4972249;28;20483;-74
2022/07/03 05:14:45;;;;;;;34.55;26.23;;;;;;;-143.10;100.00;51067.47;4970259;28;20125;-74
2022/07/03 05:17:34;;;;;;;38.15;26.20;;;;;;;-143.10;100.00;51114.44;4971246;28;20565;-74
2022/07/03 05:20:25;;;;;;;37.78;26.15;;;;;;;-143.10;97.06;51055.72;4985947;28;20050;-74
2022/07/03 05:23:14;;;;;;;39.38;27.08;;;;;;;-143.10;97.05;51071.38;4985980;28;20406;-73
2022/07/03 05:26:02;;;;;;;36.25;27.92;;;;;;;-143.10;97.37;51069.41;4971864;28;20440;-74
2022/07/03 05:28:50;;;;;;;42.20;29.10;;;;;;;-143.10;99.24;51087.03;5005726;28;20050;-75
2022/07/03 05:31:33;;;;;;;38.80;27.55;;;;;;;-143.10;97.32;51065.50;4989215;28;20056;-75
2022/07/03 05:34:28;;;;;;;35.17;27.10;;;;;;;-143.10;96.59;51098.78;4989405;28;20100;-76
2022/07/03 05:37:04;;;;;;;43.05;29.75;;;;;;;-143.10;96.94;51096.81;4988982;28;20050;-74
2022/07/03 05:40:00;;;;;;;37.58;28.08;;;;;;;-143.10;95.79;51061.59;4989562;28;20485;-74
2022/07/03 05:42:35;;;;;;;39.17;28.63;;;;;;;-143.10;97.99;51071.38;4954410;28;20046;-74
2022/07/03 05:45:31;;;;;;;40.90;27.55;;;;;;;-143.10;97.87;51096.81;4969778;28;20462;-73
2022/07/03 05:48:06;;;;;;;43.85;27.58;;;;;;;-143.10;95.67;51053.75;4982361;28;20043;-74
2022/07/03 05:51:01;;;;;;;40.17;27.80;;;;;;;-143.10;98.14;51067.47;4985798;28;20050;-74
2022/07/03 05:53:36;;;;;;;41.25;28.38;;;;;;;-143.10;98.41;51083.13;4973731;28;20093;-74
2022/07/03 05:56:31;;;;;;;36.88;27.15;;;;;;;-143.10;98.18;51073.34;4989701;28;20062;-74
2022/07/03 05:59:06;;;;;;;36.92;28.77;;;;;;;-143.10;96.12;51092.91;4991506;28;20466;-73
2022/07/03 06:02:02;;;;;;;39.38;28.42;;;;;;;-143.10;97.08;51073.34;4993452;28;20043;-75
2022/07/03 06:04:37;;;;;;;38.75;27.73;;;;;;;-143.10;95.45;51089.00;4994304;28;20076;-75
2022/07/03 06:07:32;;;;;;;38.78;28.15;;;;;;;-143.10;98.78;51073.34;5001595;28;20144;-74
2022/07/03 06:10:08;;;;;;;39.83;28.20;;;;;;;-143.10;95.17;51065.50;4990105;28;20046;-72
2022/07/03 06:12:56;;;;;;;38.85;29.23;;;;;;;-143.10;97.74;51112.50;4989771;28;20538;-74
2022/07/03 06:15:46;;;;;;;38.60;29.05;;;;;;;-143.10;96.98;51092.91;4976024;28;20555;-72
2022/07/03 06:18:28;;;;;;;39.47;29.17;;;;;;;-143.10;97.37;51083.13;4986715;28;20065;-70
2022/07/03 06:21:18;;;;;;;38.25;27.30;;;;;;;-143.10;98.76;51083.13;5007554;28;20092;-71
2022/07/03 06:24:00;;;;;;;43.70;29.08;;;;;;;-143.10;99.35;51071.38;4977581;28;20047;-72
2022/07/03 06:26:55;;;;;;;40.42;28.85;;;;;;;-143.10;95.60;51057.66;4987540;28;20046;-72
2022/07/03 06:29:50;;;;;;;40.83;28.02;;;;;;;-143.10;95.36;51079.19;4978278;28;20061;-73
2022/07/03 06:32:45;;;;;;;39.00;28.65;;;;;;;-143.10;95.15;51075.28;4969491;28;20047;-74
2022/07/03 06:35:20;;;;;;;39.80;28.17;;;;;;;-143.10;95.00;51085.06;4971944;28;20065;-73
2022/07/03 06:38:10;;;;;;;38.90;28.55;;;;;;;-143.10;96.03;51067.47;4969146;28;20131;-73
2022/07/03 06:40:52;;;;;;;40.38;28.83;;;;;;;-143.10;97.51;51090.94;4953764;28;20051;-74
2022/07/03 06:43:40;;;;;;;38.97;28.08;;;;;;;-143.10;99.40;51094.88;4967930;28;20058;-74
2022/07/03 06:46:30;;;;;;;38.00;29.40;;;;;;;-143.10;99.51;51073.34;4982098;28;20769;-74
2022/07/03 06:49:12;;;;;;;42.22;29.27;;;;;;;-143.10;99.53;51085.06;4978697;28;20046;-72
2022/07/03 06:52:01;;;;;;;40.90;28.73;;;;;;;-143.10;99.65;51057.66;4946173;28;20050;-72
2022/07/03 06:54:56;;;;;;;37.40;27.75;;;;;;;-143.10;99.93;51085.06;4978582;28;20038;-72
2022/07/03 06:57:31;;;;;;;38.47;27.65;;;;;;;-143.10;98.12;51096.81;4969462;28;20736;-71
2022/07/03 07:00:26;;;;;;;44.35;27.20;;;;;;;-143.10;97.39;51069.41;4977256;28;20065;-71
2022/07/03 07:03:01;;;;;;;38.47;28.25;;;;;;;-143.10;94.54;51077.25;4978913;28;20134;-69
2022/07/03 07:06:05;;;;;;;36.83;27.08;;;;;;;-143.10;96.28;51087.03;4978757;28;20061;-69
2022/07/03 07:08:54;;;;;;;36.25;27.30;;;;;;;-143.10;97.11;51075.28;4981065;28;20058;-70
2022/07/03 07:11:43;;;;;;;37.65;24.38;;;;;;;-143.10;95.49;51036.13;4972433;28;20718;-68
2022/07/03 07:14:25;;;;;;;36.20;25.52;;;;;;;-143.10;94.17;51063.53;4948993;28;20058;-70
2022/07/03 07:17:15;;;;;;;33.63;23.73;;;;;;;-143.10;93.67;51045.91;4980042;28;20046;-70
2022/07/03 07:19:57;;;;;;;34.13;23.65;;;;;;;-143.10;92.10;51081.16;4944419;28;20342;-68
2022/07/03 07:22:46;;;;;;;33.78;24.10;;;;;;;-143.10;89.81;51071.38;4978093;28;20054;-68
2022/07/03 07:25:28;;;;;;;33.38;22.88;;;;;;;-143.10;90.60;51053.75;4977965;28;20581;-68
2022/07/03 07:28:30;;;;;;;32.72;21.63;;;;;;;-143.10;93.26;51073.34;4991824;28;20346;-70
2022/07/03 07:31:05;;;;;;;30.70;21.23;;;;;;;-143.10;93.48;51051.78;5013879;28;20042;-71
2022/07/03 07:33:53;;;;;;;30.77;22.73;;;;;;;-143.10;93.32;51085.06;5016053;28;20048;-68
2022/07/03 07:36:36;;;;;;;32.03;21.85;;;;;;;-143.10;91.20;51104.66;5015845;28;20057;-71
2022/07/03 07:39:25;;;;;;;29.73;20.50;;;;;;;-143.10;93.95;51057.66;5009578;28;20041;-71
2022/07/03 07:42:15;;;;;;;28.95;20.70;;;;;;;-143.10;92.70;51110.53;5012841;28;20046;-68
2022/07/03 07:45:04;;;;;;;29.52;21.27;;;;;;;-143.10;94.93;51089.00;5019185;28;20423;-69
2022/07/03 07:47:46;;;;;;;25.98;17.63;;;;;;;-143.10;96.44;51073.34;5016712;28;20049;-69
2022/07/03 07:50:35;;;;;;;25.85;19.38;;;;;;;-143.10;96.80;51071.38;5013598;28;20493;-69
2022/07/03 07:53:17;;;;;;;25.52;19.00;;;;;;;-143.10;94.46;51065.50;5013395;28;20050;-69
2022/07/03 07:56:05;;;;;;;23.13;17.55;;;;;;;-143.10;92.45;51065.50;5012565;28;20057;-70
2022/07/03 07:58:51;;;;;;;23.88;17.55;;;;;;;-143.10;94.24;51069.41;5011207;28;20104;-71
2022/07/03 08:07:54;;;;;;;22.88;16.45;;;;;;;-143.10;86.81;51038.09;5006319;28;20282;-70
2022/07/03 08:10:29;;;;;;;22.13;16.65;;;;;;;-143.10;88.14;51042.00;5008165;28;20054;-68
2022/07/03 08:13:26;;;;;;;22.95;16.02;;;;;;;-143.10;89.16;51049.84;4986673;28;20362;-69
2022/07/03 08:16:02;;;;;;;23.88;17.50;;;;;;;-143.10;90.54;51089.00;5002026;28;20037;-71
2022/07/03 08:18:52;;;;;;;24.95;18.05;;;;;;;-143.10;91.20;51069.41;4989194;28;20100;-69
2022/07/03 08:21:35;;;;;;;21.73;16.63;;;;;;;-143.10;87.79;51071.38;4989371;28;20046;-68
2022/07/03 08:24:24;;;;;;;21.48;15.93;;;;;;;-143.10;89.08;51069.41;4991845;28;20715;-70
2022/07/03 08:27:13;;;;;;;34.28;17.25;;;;;;;-143.10;86.65;51055.72;5002866;28;20045;-71
2022/07/03 08:33:42;;;;;;;20.73;15.68;;;;;;;-143.10;88.71;51059.63;4811583;29;20271;-72
2022/07/03 08:36:37;;;;;;;17.50;15.38;;;;;;;-143.10;89.86;51057.66;4758927;29;20067;-72
2022/07/03 08:39:25;;;;;;;25.17;16.15;;;;;;;-143.10;88.60;51069.41;4773524;30;20168;-70
2022/07/03 08:42:09;;;;;;;23.02;15.40;;;;;;;-143.10;89.80;51061.59;4792201;29;20063;-69
2022/07/03 08:45:00;;;;;;;21.85;15.55;;;;;;;-143.10;91.91;51042.00;4784127;29;20059;-71
2022/07/03 08:47:50;;;;;;;22.65;15.70;;;;;;;-143.10;88.46;51057.66;4792141;29;20063;-69
2022/07/03 08:50:33;;;;;;;25.55;17.90;;;;;;;-143.10;88.75;51055.72;4779457;30;20059;-70
2022/07/03 08:53:24;;;;;;;21.10;16.33;;;;;;;-143.10;87.98;51065.50;4782551;30;20120;-70
2022/07/03 08:56:09;;;;;;;18.73;15.38;;;;;;;-143.10;88.74;51051.78;4781107;29;20081;-69
2022/07/03 08:58:58;;;;;;;22.33;15.75;;;;;;;-143.10;88.28;51042.00;4765642;30;20058;-69
2022/07/03 09:01:42;;;;;;;23.17;15.15;;;;;;;-143.10;87.11;51051.78;4780646;30;20756;-70
2022/07/03 09:04:31;;;;;;;20.08;15.73;;;;;;;-143.10;84.90;51053.75;4768710;30;20067;-69
2022/07/03 09:07:21;;;;;;;24.25;15.85;;;;;;;-143.10;87.81;51069.41;4776492;29;20051;-70
2022/07/03 09:10:13;;;;;;;17.98;14.00;;;;;;;-143.10;89.22;51053.75;4784842;29;20047;-69
2022/07/03 09:13:09;;;;;;;19.35;14.40;;;;;;;-143.10;88.05;51030.25;4758168;30;20044;-69
2022/07/03 09:15:44;;;;;;;20.77;13.45;;;;;;;-143.10;90.62;51051.78;4791392;29;20047;-70
2022/07/03 09:18:42;;;;;;;20.55;14.43;;;;;;;-143.10;86.42;51024.38;4782149;30;20124;-70
2022/07/03 09:21:31;;;;;;;15.00;13.00;;;;;;;-143.10;84.54;51053.75;4766401;30;20480;-70
2022/07/03 09:24:12;;;;;;;18.52;12.98;;;;;;;-143.10;85.20;51085.06;4765256;30;20051;-70
2022/07/03 09:27:03;;;;;;;20.92;14.48;;;;;;;-143.10;87.36;51042.00;4769802;30;20813;-70
2022/07/03 09:30:02;;;;;;;18.30;12.50;;;;;;;-143.10;86.40;51038.09;4783918;29;20066;-70
2022/07/03 09:32:53;;;;;;;18.77;14.10;;;;;;;-143.10;85.00;51081.16;4784333;29;20173;-70
2022/07/03 09:35:49;;;;;;;15.73;13.15;;;;;;;-143.10;86.27;51042.00;4792675;29;20074;-70
2022/07/03 09:38:51;;;;;;;17.77;13.10;;;;;;;-143.10;86.68;51036.13;4801619;29;20555;-70
2022/07/03 09:42:09;;;;;;;17.60;13.93;;;;;;;-143.10;88.47;51053.75;4802469;29;20058;-70
2022/07/03 09:45:04;;;;;;;18.27;13.18;;;;;;;-143.10;88.99;51053.75;4788578;29;20054;-70
2022/07/03 09:47:39;;;;;;;15.15;12.63;;;;;;;-143.10;89.03;51045.91;4806044;29;20061;-70
2022/07/03 09:50:44;;;;;;;16.98;13.65;;;;;;;-143.10;88.50;51042.00;4789310;29;20061;-69
2022/07/03 09:53:19;;;;;;;17.63;13.52;;;;;;;-143.10;87.66;51059.63;4815814;29;20066;-70
2022/07/03 09:56:08;;;;;;;15.27;13.23;;;;;;;-143.10;88.20;51079.19;4818799;29;20146;-70
2022/07/03 09:59:25;;;;;;;18.60;13.88;;;;;;;-143.10;86.11;51006.75;4819844;29;20479;-71
2022/07/03 10:02:20;;;;;;;17.63;14.23;;;;;;;-143.10;88.91;51073.34;4708318;30;20533;-70
2022/07/03 10:05:12;;;;;;;17.48;13.95;;;;;;;-143.10;87.19;51059.63;4802559;29;20058;-70
2022/07/03 10:08:02;;;;;;;14.23;12.65;;;;;;;-143.10;86.71;51022.44;4801358;29;20047;-70
2022/07/03 10:10:53;;;;;;;17.27;13.25;;;;;;;-143.10;86.72;51053.75;4801750;29;20061;-70
2022/07/03 10:13:48;;;;;;;20.27;12.80;;;;;;;-143.10;87.14;51040.03;4801767;29;20073;-71
2022/07/03 10:16:25;;;;;;;16.23;13.75;;;;;;;-143.10;84.29;51036.13;4801674;29;20061;-71
2022/07/03 10:19:21;;;;;;;17.75;12.63;;;;;;;-143.10;84.86;51061.59;4804404;29;20054;-70
2022/07/03 10:22:00;;;;;;;13.60;11.98;;;;;;;-143.10;85.81;51040.03;4804249;29;20153;-71
2022/07/03 10:24:56;;;;;;;16.05;12.50;;;;;;;-143.10;80.33;51053.75;4801833;29;20106;-70
2022/07/03 10:27:31;;;;;;;16.50;12.25;;;;;;;-143.10;80.99;51079.19;4800780;29;20058;-70
2022/07/03 10:30:29;;;;;;;16.33;12.48;;;;;;;-143.10;83.44;51061.59;4810166;29;20078;-70
2022/07/03 10:33:04;;;;;;;18.30;11.98;;;;;;;-143.10;84.99;51040.03;4818839;29;20726;-70
2022/07/03 10:36:02;;;;;;;17.48;13.00;;;;;;;-143.10;83.01;51014.59;4819583;29;20133;-71
2022/07/03 10:39:02;;;;;;;16.48;12.68;;;;;;;-143.10;82.95;51026.34;4817967;29;20053;-70
2022/07/03 10:45:16;;;;;;;17.45;13.45;;;;;;;-143.10;82.87;51049.84;4818570;29;20050;-71
2022/07/03 10:48:11;;;;;;;15.18;12.00;;;;;;;-143.10;85.31;51026.34;4817635;29;20046;-71
2022/07/03 10:50:53;;;;;;;22.20;13.98;;;;;;;-143.10;85.32;51053.75;4818828;29;20062;-70
2022/07/03 10:53:42;;;;;;;19.02;13.68;;;;;;;-143.10;83.78;51057.66;4818150;29;20070;-71
2022/07/03 10:56:24;;;;;;;15.80;11.80;;;;;;;-143.10;83.71;51028.31;4818293;29;20058;-69
2022/07/03 10:59:19;;;;;;;14.98;12.35;;;;;;;-143.10;81.37;51042.00;4818640;29;20050;-71
2022/07/03 11:02:23;;;;;;;19.17;11.77;;;;;;;-143.10;82.55;51028.31;4806381;29;20379;-71
2022/07/03 11:05:23;;;;;;;17.25;11.98;;;;;;;-143.10;81.44;51042.00;4782070;29;20455;-71
2022/07/03 11:08:13;;;;;;;15.30;12.50;;;;;;;-143.10;82.78;51040.03;4782714;30;20051;-70
2022/07/03 11:11:54;;;;;;;17.05;12.35;;;;;;;-143.10;84.76;51057.66;4782258;30;20640;-70
2022/07/03 11:14:26;;;;;;;23.20;12.82;;;;;;;-143.10;83.01;51024.38;4782329;30;20051;-71
2022/07/03 11:17:18;;;;;;;17.27;11.98;;;;;;;-143.10;83.67;51077.25;4799652;29;20523;-71
2022/07/03 11:20:25;;;;;;;18.83;12.27;;;;;;;-143.10;82.68;51002.84;4786761;29;20055;-70
2022/07/03 11:23:11;;;;;;;15.60;12.23;;;;;;;-143.10;84.25;51036.13;4799511;29;20050;-69
2022/07/03 11:26:04;;;;;;;13.57;11.05;;;;;;;-143.10;81.34;51038.09;4799966;29;20047;-70
2022/07/03 11:28:46;;;;;;;13.27;11.32;;;;;;;-143.10;80.60;51024.38;4802299;29;20055;-69
2022/07/03 11:31:35;;;;;;;12.80;10.48;;;;;;;-143.10;82.60;51028.31;4794477;29;20051;-70
2022/07/03 11:34:21;;;;;;;15.00;10.88;;;;;;;-143.10;83.03;51038.09;4782155;29;20520;-69
2022/07/03 11:37:10;;;;;;;19.13;12.80;;;;;;;-143.10;83.63;51053.75;4781603;29;20054;-69
2022/07/03 11:40:04;;;;;;;14.80;10.95;;;;;;;-143.10;83.98;51036.13;4797552;29;20077;-69
2022/07/03 11:42:46;;;;;;;15.70;10.93;;;;;;;-143.10;82.80;51042.00;4800666;29;20059;-70
2022/07/03 11:45:36;;;;;;;12.93;10.10;;;;;;;-143.10;83.82;51049.84;4789652;29;20562;-70
2022/07/03 11:48:28;;;;;;;13.10;9.93;;;;;;;-143.10;82.17;51022.44;4790398;29;20055;-70
2022/07/03 11:51:23;;;;;;;14.05;10.05;;;;;;;-143.10;81.96;51018.50;4781746;30;20047;-75
2022/07/03 11:53:58;;;;;;;15.95;10.88;;;;;;;-143.10;83.19;51022.44;4764526;29;20058;-75
2022/07/03 11:56:48;;;;;;;14.82;10.60;;;;;;;-143.10;81.93;51018.50;4790839;29;20059;-74
2022/07/03 11:59:32;;;;;;;12.30;10.45;;;;;;;-143.10;81.49;51018.50;4790921;29;20353;-74
2022/07/03 12:02:21;;;;;;;12.07;9.93;;;;;;;-143.10;84.13;51045.91;4793545;29;20055;-77
2022/07/03 12:05:03;;;;;;;13.23;10.00;;;;;;;-143.10;82.52;51020.47;4796328;29;20055;-76
2022/07/03 12:08:06;;;;;;;13.07;11.07;;;;;;;-143.10;83.41;51063.53;4792149;29;20046;-75
2022/07/03 12:10:56;;;;;;;14.93;11.10;;;;;;;-143.10;83.72;51045.91;4802028;29;20127;-77
2022/07/03 12:13:45;;;;;;;16.75;10.75;;;;;;;-143.10;84.78;51055.72;4804661;29;20069;-77
2022/07/03 12:16:40;;;;;;;12.90;10.40;;;;;;;-143.10;85.21;51053.75;4775317;29;20135;-73
2022/07/03 12:19:22;;;;;;;13.20;10.32;;;;;;;-143.10;85.69;51010.69;4776048;29;20050;-71
2022/07/03 12:22:11;;;;;;;13.88;10.73;;;;;;;-143.10;82.76;51051.78;4789466;29;20051;-74
2022/07/03 12:25:12;;;;;;;12.50;9.68;;;;;;;-143.10;83.28;51040.03;4791091;29;20112;-71
2022/07/03 12:28:01;;;;;;;13.55;9.73;;;;;;;-143.10;83.37;51073.34;4790033;29;20070;-67
2022/07/03 12:30:50;;;;;;;13.85;9.65;;;;;;;-143.10;82.42;51049.84;4798423;29;20047;-71
2022/07/03 12:33:35;;;;;;;12.38;9.80;;;;;;;-143.10;85.03;51055.72;4464216;29;10000479;-70
2022/07/03 12:36:31;;;;;;;12.48;9.02;;;;;;;-143.10;85.24;51073.34;4467582;29;9999987;-70
2022/07/03 12:39:13;;;;;;;13.82;9.65;;;;;;;-143.10;82.14;51069.41;4762012;30;20120;-69
2022/07/03 12:42:05;;;;;;;11.07;9.75;;;;;;;-143.10;84.04;51043.97;4779091;30;20058;-72
2022/07/03 12:45:01;;;;;;;12.80;9.18;;;;;;;-143.10;83.23;51059.63;4763973;30;20159;-71
2022/07/03 12:48:05;;;;;;;10.25;9.05;;;;;;;-143.10;81.55;51004.81;4785988;29;20116;-71
2022/07/03 12:50:51;;;;;;;11.73;8.88;;;;;;;-143.10;82.35;51032.22;4766334;30;20062;-71
2022/07/03 12:53:41;;;;;;;13.57;9.73;;;;;;;-143.10;85.31;51030.25;4795648;29;20062;-74
2022/07/03 12:56:24;;;;;;;16.92;9.60;;;;;;;-143.10;84.60;51053.75;4796441;29;20058;-72